sensor_id;sensor_type;location;lat;lon;timestamp;P1;durP1;ratioP1;P2;durP2;ratioP2
26211;SDS011;13951;49.516;6.094;2023-02-15T00:00:07;15.27;;;7.80;;
26211;SDS011;13951;49.516;6.094;2023-02-15T00:02:44;13.47;;;7.47;;
26211;SDS011;13951;49.516;6.094;2023-02-15T00:05:17;14.67;;;7.50;;
26211;SDS011;13951;49.516;6.094;2023-02-15T00:07:49;13.53;;;7.13;;
26211;SDS011;13951;49.516;6.094;2023-02-15T00:10:22;17.93;;;7.73;;
26211;SDS011;13951;49.516;6.094;2023-02-15T00:12:55;13.53;;;7.57;;
26211;SDS011;13951;49.516;6.094;2023-02-15T00:15:28;16.93;;;7.90;;
26211;SDS011;13951;49.516;6.094;2023-02-15T00:18:01;13.80;;;7.23;;
26211;SDS011;13951;49.516;6.094;2023-02-15T00:20:34;14.70;;;7.30;;
26211;SDS011;13951;49.516;6.094;2023-02-15T00:23:07;18.47;;;7.40;;
26211;SDS011;13951;49.516;6.094;2023-02-15T00:25:39;16.23;;;8.17;;
26211;SDS011;13951;49.516;6.094;2023-02-15T00:28:12;18.80;;;9.07;;
26211;SDS011;13951;49.516;6.094;2023-02-15T00:30:45;18.07;;;8.00;;
26211;SDS011;13951;49.516;6.094;2023-02-15T00:33:18;18.70;;;7.77;;
26211;SDS011;13951;49.516;6.094;2023-02-15T00:35:55;15.90;;;7.17;;
26211;SDS011;13951;49.516;6.094;2023-02-15T00:38:29;12.30;;;6.80;;
26211;SDS011;13951;49.516;6.094;2023-02-15T00:41:04;17.87;;;7.60;;
26211;SDS011;13951;49.516;6.094;2023-02-15T00:43:38;18.77;;;8.20;;
26211;SDS011;13951;49.516;6.094;2023-02-15T00:46:12;19.97;;;8.97;;
26211;SDS011;13951;49.516;6.094;2023-02-15T00:48:45;14.10;;;7.23;;
26211;SDS011;13951;49.516;6.094;2023-02-15T00:51:17;16.40;;;6.93;;
26211;SDS011;13951;49.516;6.094;2023-02-15T00:53:50;16.33;;;6.87;;
26211;SDS011;13951;49.516;6.094;2023-02-15T00:56:23;15.90;;;9.13;;
26211;SDS011;13951;49.516;6.094;2023-02-15T00:58:56;16.73;;;8.90;;
26211;SDS011;13951;49.516;6.094;2023-02-15T01:01:29;25.10;;;9.43;;
26211;SDS011;13951;49.516;6.094;2023-02-15T01:04:02;17.47;;;9.17;;
26211;SDS011;13951;49.516;6.094;2023-02-15T01:06:35;16.93;;;7.93;;
26211;SDS011;13951;49.516;6.094;2023-02-15T01:09:08;17.63;;;8.10;;
26211;SDS011;13951;49.516;6.094;2023-02-15T01:11:41;20.20;;;8.77;;
26211;SDS011;13951;49.516;6.094;2023-02-15T01:14:14;16.07;;;8.27;;
26211;SDS011;13951;49.516;6.094;2023-02-15T01:16:47;22.70;;;8.87;;
26211;SDS011;13951;49.516;6.094;2023-02-15T01:19:19;13.93;;;7.90;;
26211;SDS011;13951;49.516;6.094;2023-02-15T01:21:52;16.33;;;8.40;;
26211;SDS011;13951;49.516;6.094;2023-02-15T01:24:25;19.40;;;8.77;;
26211;SDS011;13951;49.516;6.094;2023-02-15T01:26:58;17.63;;;8.50;;
26211;SDS011;13951;49.516;6.094;2023-02-15T01:29:31;22.10;;;9.13;;
26211;SDS011;13951;49.516;6.094;2023-02-15T01:32:04;22.75;;;12.20;;
26211;SDS011;13951;49.516;6.094;2023-02-15T01:34:37;19.87;;;8.70;;
26211;SDS011;13951;49.516;6.094;2023-02-15T01:37:10;20.47;;;9.77;;
26211;SDS011;13951;49.516;6.094;2023-02-15T01:39:42;13.73;;;7.00;;
26211;SDS011;13951;49.516;6.094;2023-02-15T01:42:20;12.93;;;7.10;;
26211;SDS011;13951;49.516;6.094;2023-02-15T01:44:55;14.93;;;7.70;;
26211;SDS011;13951;49.516;6.094;2023-02-15T01:47:32;20.40;;;8.60;;
26211;SDS011;13951;49.516;6.094;2023-02-15T01:52:55;18.80;;;8.00;;
26211;SDS011;13951;49.516;6.094;2023-02-15T01:55:32;15.97;;;7.87;;
26211;SDS011;13951;49.516;6.094;2023-02-15T01:58:06;15.80;;;8.20;;
26211;SDS011;13951;49.516;6.094;2023-02-15T02:00:39;18.57;;;8.50;;
26211;SDS011;13951;49.516;6.094;2023-02-15T02:03:13;20.67;;;8.60;;
26211;SDS011;13951;49.516;6.094;2023-02-15T02:05:46;21.13;;;9.30;;
26211;SDS011;13951;49.516;6.094;2023-02-15T02:08:19;18.53;;;9.47;;
26211;SDS011;13951;49.516;6.094;2023-02-15T02:10:52;21.57;;;10.53;;
26211;SDS011;13951;49.516;6.094;2023-02-15T02:13:25;18.40;;;8.77;;
26211;SDS011;13951;49.516;6.094;2023-02-15T02:16:04;24.77;;;9.30;;
26211;SDS011;13951;49.516;6.094;2023-02-15T02:18:52;20.00;;;8.67;;
26211;SDS011;13951;49.516;6.094;2023-02-15T02:21:40;21.10;;;9.77;;
26211;SDS011;13951;49.516;6.094;2023-02-15T02:35:33;18.80;;;8.80;;
26211;SDS011;13951;49.516;6.094;2023-02-15T02:38:11;19.87;;;8.37;;
26211;SDS011;13951;49.516;6.094;2023-02-15T02:43:30;17.80;;;8.93;;
26211;SDS011;13951;49.516;6.094;2023-02-15T02:46:41;22.70;;;10.63;;
26211;SDS011;13951;49.516;6.094;2023-02-15T02:49:05;18.97;;;8.60;;
26211;SDS011;13951;49.516;6.094;2023-02-15T02:51:38;18.97;;;8.53;;
26211;SDS011;13951;49.516;6.094;2023-02-15T02:54:11;15.37;;;8.67;;
26211;SDS011;13951;49.516;6.094;2023-02-15T02:56:46;20.27;;;9.47;;
26211;SDS011;13951;49.516;6.094;2023-02-15T02:59:27;17.03;;;8.70;;
26211;SDS011;13951;49.516;6.094;2023-02-15T03:02:11;18.80;;;8.97;;
26211;SDS011;13951;49.516;6.094;2023-02-15T03:04:47;20.70;;;8.70;;
26211;SDS011;13951;49.516;6.094;2023-02-15T03:07:30;18.13;;;9.03;;
26211;SDS011;13951;49.516;6.094;2023-02-15T03:10:05;19.03;;;8.77;;
26211;SDS011;13951;49.516;6.094;2023-02-15T03:12:39;21.70;;;9.67;;
26211;SDS011;13951;49.516;6.094;2023-02-15T03:15:15;18.07;;;8.90;;
26211;SDS011;13951;49.516;6.094;2023-02-15T03:17:51;16.07;;;8.60;;
26211;SDS011;13951;49.516;6.094;2023-02-15T03:20:27;21.83;;;9.13;;
26211;SDS011;13951;49.516;6.094;2023-02-15T03:23:02;16.70;;;8.97;;
26211;SDS011;13951;49.516;6.094;2023-02-15T03:25:39;17.87;;;9.80;;
26211;SDS011;13951;49.516;6.094;2023-02-15T03:28:15;19.73;;;9.80;;
26211;SDS011;13951;49.516;6.094;2023-02-15T03:30:51;19.27;;;9.17;;
26211;SDS011;13951;49.516;6.094;2023-02-15T03:33:26;16.37;;;9.03;;
26211;SDS011;13951;49.516;6.094;2023-02-15T03:36:11;20.33;;;8.93;;
26211;SDS011;13951;49.516;6.094;2023-02-15T03:39:13;17.13;;;9.07;;
26211;SDS011;13951;49.516;6.094;2023-02-15T03:42:05;20.50;;;8.67;;
26211;SDS011;13951;49.516;6.094;2023-02-15T03:47:32;20.27;;;9.03;;
26211;SDS011;13951;49.516;6.094;2023-02-15T03:50:40;18.80;;;8.93;;
26211;SDS011;13951;49.516;6.094;2023-02-15T03:53:24;19.83;;;8.83;;
26211;SDS011;13951;49.516;6.094;2023-02-15T03:55:58;18.23;;;8.83;;
26211;SDS011;13951;49.516;6.094;2023-02-15T03:58:31;18.83;;;8.77;;
26211;SDS011;13951;49.516;6.094;2023-02-15T04:01:40;18.20;;;8.70;;
26211;SDS011;13951;49.516;6.094;2023-02-15T04:04:39;19.63;;;8.87;;
26211;SDS011;13951;49.516;6.094;2023-02-15T04:07:14;19.90;;;8.37;;
26211;SDS011;13951;49.516;6.094;2023-02-15T04:09:47;13.60;;;7.00;;
26211;SDS011;13951;49.516;6.094;2023-02-15T04:12:39;17.47;;;8.73;;
26211;SDS011;13951;49.516;6.094;2023-02-15T04:15:12;18.03;;;8.20;;
26211;SDS011;13951;49.516;6.094;2023-02-15T04:18:05;15.03;;;8.33;;
26211;SDS011;13951;49.516;6.094;2023-02-15T04:20:37;18.97;;;8.53;;
26211;SDS011;13951;49.516;6.094;2023-02-15T04:23:29;16.97;;;8.47;;
26211;SDS011;13951;49.516;6.094;2023-02-15T04:26:21;17.20;;;8.10;;
26211;SDS011;13951;49.516;6.094;2023-02-15T04:28:54;13.60;;;7.87;;
26211;SDS011;13951;49.516;6.094;2023-02-15T04:31:26;14.67;;;7.90;;
26211;SDS011;13951;49.516;6.094;2023-02-15T04:34:00;17.50;;;8.93;;
26211;SDS011;13951;49.516;6.094;2023-02-15T04:36:32;19.30;;;8.53;;
26211;SDS011;13951;49.516;6.094;2023-02-15T04:39:07;17.93;;;8.70;;
26211;SDS011;13951;49.516;6.094;2023-02-15T04:41:40;17.20;;;8.70;;
26211;SDS011;13951;49.516;6.094;2023-02-15T04:44:13;17.53;;;9.07;;
26211;SDS011;13951;49.516;6.094;2023-02-15T04:46:46;17.83;;;8.10;;
26211;SDS011;13951;49.516;6.094;2023-02-15T04:49:19;23.37;;;9.57;;
26211;SDS011;13951;49.516;6.094;2023-02-15T04:51:52;21.83;;;9.40;;
26211;SDS011;13951;49.516;6.094;2023-02-15T04:54:25;18.03;;;8.07;;
26211;SDS011;13951;49.516;6.094;2023-02-15T04:56:58;18.93;;;8.27;;
26211;SDS011;13951;49.516;6.094;2023-02-15T04:59:31;19.10;;;8.07;;
26211;SDS011;13951;49.516;6.094;2023-02-15T05:02:05;19.83;;;7.33;;
26211;SDS011;13951;49.516;6.094;2023-02-15T05:04:38;19.03;;;8.50;;
26211;SDS011;13951;49.516;6.094;2023-02-15T05:07:11;19.37;;;8.80;;
26211;SDS011;13951;49.516;6.094;2023-02-15T05:09:44;21.07;;;10.10;;
26211;SDS011;13951;49.516;6.094;2023-02-15T05:12:17;21.40;;;10.57;;
26211;SDS011;13951;49.516;6.094;2023-02-15T05:14:50;22.33;;;10.43;;
26211;SDS011;13951;49.516;6.094;2023-02-15T05:17:23;26.10;;;10.80;;
26211;SDS011;13951;49.516;6.094;2023-02-15T05:19:56;23.90;;;11.00;;
26211;SDS011;13951;49.516;6.094;2023-02-15T05:22:29;23.03;;;11.13;;
26211;SDS011;13951;49.516;6.094;2023-02-15T05:25:02;21.57;;;8.93;;
26211;SDS011;13951;49.516;6.094;2023-02-15T05:27:54;20.33;;;9.23;;
26211;SDS011;13951;49.516;6.094;2023-02-15T05:30:49;23.20;;;9.63;;
26211;SDS011;13951;49.516;6.094;2023-02-15T05:33:23;22.30;;;9.87;;
26211;SDS011;13951;49.516;6.094;2023-02-15T05:35:56;21.10;;;9.03;;
26211;SDS011;13951;49.516;6.094;2023-02-15T05:38:29;18.70;;;8.67;;
26211;SDS011;13951;49.516;6.094;2023-02-15T05:41:02;24.33;;;9.57;;
26211;SDS011;13951;49.516;6.094;2023-02-15T05:43:36;18.40;;;8.40;;
26211;SDS011;13951;49.516;6.094;2023-02-15T05:46:09;21.17;;;9.50;;
26211;SDS011;13951;49.516;6.094;2023-02-15T05:48:42;18.60;;;8.53;;
26211;SDS011;13951;49.516;6.094;2023-02-15T05:51:15;18.93;;;8.20;;
26211;SDS011;13951;49.516;6.094;2023-02-15T05:53:48;27.03;;;8.10;;
26211;SDS011;13951;49.516;6.094;2023-02-15T05:56:21;19.90;;;8.30;;
26211;SDS011;13951;49.516;6.094;2023-02-15T05:58:54;21.17;;;8.67;;
26211;SDS011;13951;49.516;6.094;2023-02-15T06:01:27;22.83;;;9.20;;
26211;SDS011;13951;49.516;6.094;2023-02-15T06:04:00;23.60;;;9.27;;
26211;SDS011;13951;49.516;6.094;2023-02-15T06:06:33;19.40;;;9.00;;
26211;SDS011;13951;49.516;6.094;2023-02-15T06:09:06;25.65;;;10.55;;
26211;SDS011;13951;49.516;6.094;2023-02-15T06:11:39;22.43;;;9.87;;
26211;SDS011;13951;49.516;6.094;2023-02-15T06:14:12;18.00;;;9.00;;
26211;SDS011;13951;49.516;6.094;2023-02-15T06:16:45;20.47;;;8.87;;
26211;SDS011;13951;49.516;6.094;2023-02-15T06:19:18;18.33;;;8.60;;
26211;SDS011;13951;49.516;6.094;2023-02-15T06:21:52;23.93;;;8.13;;
26211;SDS011;13951;49.516;6.094;2023-02-15T06:24:25;22.90;;;9.07;;
26211;SDS011;13951;49.516;6.094;2023-02-15T06:26:58;17.20;;;8.03;;
26211;SDS011;13951;49.516;6.094;2023-02-15T06:29:31;16.37;;;7.10;;
26211;SDS011;13951;49.516;6.094;2023-02-15T06:32:04;24.60;;;11.67;;
26211;SDS011;13951;49.516;6.094;2023-02-15T06:34:38;16.53;;;7.47;;
26211;SDS011;13951;49.516;6.094;2023-02-15T06:37:11;18.90;;;7.47;;
26211;SDS011;13951;49.516;6.094;2023-02-15T06:39:44;21.90;;;8.83;;
26211;SDS011;13951;49.516;6.094;2023-02-15T06:42:17;14.40;;;6.83;;
26211;SDS011;13951;49.516;6.094;2023-02-15T06:44:51;13.53;;;7.00;;
26211;SDS011;13951;49.516;6.094;2023-02-15T06:47:23;17.43;;;7.70;;
26211;SDS011;13951;49.516;6.094;2023-02-15T06:49:56;18.63;;;6.83;;
26211;SDS011;13951;49.516;6.094;2023-02-15T06:52:29;15.33;;;7.20;;
26211;SDS011;13951;49.516;6.094;2023-02-15T06:55:05;13.20;;;7.10;;
26211;SDS011;13951;49.516;6.094;2023-02-15T06:57:38;12.13;;;6.07;;
26211;SDS011;13951;49.516;6.094;2023-02-15T07:00:11;12.67;;;6.50;;
26211;SDS011;13951;49.516;6.094;2023-02-15T07:02:44;9.73;;;5.53;;
26211;SDS011;13951;49.516;6.094;2023-02-15T07:05:17;13.17;;;6.67;;
26211;SDS011;13951;49.516;6.094;2023-02-15T07:07:50;15.33;;;6.47;;
26211;SDS011;13951;49.516;6.094;2023-02-15T07:10:23;12.53;;;5.90;;
26211;SDS011;13951;49.516;6.094;2023-02-15T07:12:58;12.53;;;6.30;;
26211;SDS011;13951;49.516;6.094;2023-02-15T07:15:31;17.73;;;6.93;;
26211;SDS011;13951;49.516;6.094;2023-02-15T07:18:04;9.10;;;5.20;;
26211;SDS011;13951;49.516;6.094;2023-02-15T07:20:37;11.57;;;5.27;;
26211;SDS011;13951;49.516;6.094;2023-02-15T07:23:41;11.60;;;5.47;;
26211;SDS011;13951;49.516;6.094;2023-02-15T07:26:14;10.63;;;5.37;;
26211;SDS011;13951;49.516;6.094;2023-02-15T07:28:47;13.30;;;5.13;;
26211;SDS011;13951;49.516;6.094;2023-02-15T07:31:20;11.40;;;5.57;;
26211;SDS011;13951;49.516;6.094;2023-02-15T07:33:53;12.20;;;6.17;;
26211;SDS011;13951;49.516;6.094;2023-02-15T07:36:26;12.33;;;6.47;;
26211;SDS011;13951;49.516;6.094;2023-02-15T07:41:21;12.80;;;5.73;;
26211;SDS011;13951;49.516;6.094;2023-02-15T07:43:55;10.23;;;5.60;;
26211;SDS011;13951;49.516;6.094;2023-02-15T07:46:28;13.00;;;5.93;;
26211;SDS011;13951;49.516;6.094;2023-02-15T07:49:02;10.57;;;5.93;;
26211;SDS011;13951;49.516;6.094;2023-02-15T07:51:35;22.47;;;6.33;;
26211;SDS011;13951;49.516;6.094;2023-02-15T07:54:08;18.90;;;6.37;;
26211;SDS011;13951;49.516;6.094;2023-02-15T07:56:41;10.13;;;4.77;;
26211;SDS011;13951;49.516;6.094;2023-02-15T07:59:14;17.07;;;6.43;;
26211;SDS011;13951;49.516;6.094;2023-02-15T08:01:47;10.57;;;4.90;;
26211;SDS011;13951;49.516;6.094;2023-02-15T08:04:20;12.73;;;5.83;;
26211;SDS011;13951;49.516;6.094;2023-02-15T08:06:53;11.60;;;6.03;;
26211;SDS011;13951;49.516;6.094;2023-02-15T08:09:27;12.97;;;6.47;;
26211;SDS011;13951;49.516;6.094;2023-02-15T08:12:00;11.90;;;5.73;;
26211;SDS011;13951;49.516;6.094;2023-02-15T08:14:34;15.93;;;6.47;;
26211;SDS011;13951;49.516;6.094;2023-02-15T08:17:07;13.13;;;6.17;;
26211;SDS011;13951;49.516;6.094;2023-02-15T08:19:40;13.97;;;6.23;;
26211;SDS011;13951;49.516;6.094;2023-02-15T08:22:13;16.10;;;6.80;;
26211;SDS011;13951;49.516;6.094;2023-02-15T08:24:46;16.27;;;6.33;;
26211;SDS011;13951;49.516;6.094;2023-02-15T08:27:19;11.63;;;5.67;;
26211;SDS011;13951;49.516;6.094;2023-02-15T08:29:58;14.67;;;7.03;;
26211;SDS011;13951;49.516;6.094;2023-02-15T08:32:31;16.80;;;7.17;;
26211;SDS011;13951;49.516;6.094;2023-02-15T08:35:04;16.80;;;6.87;;
26211;SDS011;13951;49.516;6.094;2023-02-15T08:37:37;13.33;;;6.17;;
26211;SDS011;13951;49.516;6.094;2023-02-15T08:40:10;11.87;;;6.27;;
26211;SDS011;13951;49.516;6.094;2023-02-15T08:42:45;23.63;;;10.88;;
26211;SDS011;13951;49.516;6.094;2023-02-15T08:45:18;14.93;;;6.63;;
26211;SDS011;13951;49.516;6.094;2023-02-15T08:47:51;14.03;;;7.03;;
26211;SDS011;13951;49.516;6.094;2023-02-15T08:50:24;16.30;;;7.50;;
26211;SDS011;13951;49.516;6.094;2023-02-15T08:52:57;16.20;;;7.03;;
26211;SDS011;13951;49.516;6.094;2023-02-15T08:55:30;13.10;;;7.37;;
26211;SDS011;13951;49.516;6.094;2023-02-15T08:58:03;15.57;;;7.83;;
26211;SDS011;13951;49.516;6.094;2023-02-15T09:00:36;15.93;;;7.30;;
26211;SDS011;13951;49.516;6.094;2023-02-15T09:03:09;17.57;;;8.43;;
26211;SDS011;13951;49.516;6.094;2023-02-15T09:05:42;27.08;;;11.95;;
26211;SDS011;13951;49.516;6.094;2023-02-15T09:08:15;16.90;;;7.57;;
26211;SDS011;13951;49.516;6.094;2023-02-15T09:10:48;16.27;;;7.43;;
26211;SDS011;13951;49.516;6.094;2023-02-15T09:13:21;15.07;;;7.00;;
26211;SDS011;13951;49.516;6.094;2023-02-15T09:15:58;17.37;;;8.33;;
26211;SDS011;13951;49.516;6.094;2023-02-15T09:18:35;18.33;;;7.60;;
26211;SDS011;13951;49.516;6.094;2023-02-15T09:21:13;20.47;;;7.77;;
26211;SDS011;13951;49.516;6.094;2023-02-15T09:23:47;15.30;;;7.90;;
26211;SDS011;13951;49.516;6.094;2023-02-15T09:26:21;21.17;;;8.90;;
26211;SDS011;13951;49.516;6.094;2023-02-15T09:28:55;16.37;;;7.60;;
26211;SDS011;13951;49.516;6.094;2023-02-15T09:31:33;20.30;;;8.43;;
26211;SDS011;13951;49.516;6.094;2023-02-15T09:34:06;16.87;;;8.00;;
26211;SDS011;13951;49.516;6.094;2023-02-15T09:36:39;16.97;;;7.77;;
26211;SDS011;13951;49.516;6.094;2023-02-15T09:44:38;23.23;;;11.52;;
26211;SDS011;13951;49.516;6.094;2023-02-15T09:57:53;13.60;;;6.70;;
26211;SDS011;13951;49.516;6.094;2023-02-15T10:00:34;18.13;;;8.23;;
26211;SDS011;13951;49.516;6.094;2023-02-15T10:03:19;16.33;;;7.07;;
26211;SDS011;13951;49.516;6.094;2023-02-15T10:08:39;16.40;;;8.30;;
26211;SDS011;13951;49.516;6.094;2023-02-15T10:11:16;18.10;;;8.17;;
26211;SDS011;13951;49.516;6.094;2023-02-15T10:16:50;20.83;;;8.93;;
26211;SDS011;13951;49.516;6.094;2023-02-15T10:22:26;22.30;;;8.73;;
26211;SDS011;13951;49.516;6.094;2023-02-15T10:25:01;19.17;;;8.90;;
26211;SDS011;13951;49.516;6.094;2023-02-15T10:27:37;19.40;;;8.80;;
26211;SDS011;13951;49.516;6.094;2023-02-15T10:30:17;16.40;;;8.10;;
26211;SDS011;13951;49.516;6.094;2023-02-15T10:35:52;20.70;;;9.00;;
26211;SDS011;13951;49.516;6.094;2023-02-15T10:38:41;19.03;;;9.30;;
26211;SDS011;13951;49.516;6.094;2023-02-15T11:00:01;23.53;;;9.87;;
26211;SDS011;13951;49.516;6.094;2023-02-15T11:08:20;22.83;;;9.50;;
26211;SDS011;13951;49.516;6.094;2023-02-15T11:10:55;20.75;;;9.20;;
26211;SDS011;13951;49.516;6.094;2023-02-15T11:13:31;23.37;;;9.13;;
26211;SDS011;13951;49.516;6.094;2023-02-15T11:16:16;24.43;;;9.23;;
26211;SDS011;13951;49.516;6.094;2023-02-15T11:21:51;20.07;;;9.20;;
26211;SDS011;13951;49.516;6.094;2023-02-15T11:24:33;18.00;;;9.43;;
26211;SDS011;13951;49.516;6.094;2023-02-15T11:35:23;21.90;;;9.50;;
26211;SDS011;13951;49.516;6.094;2023-02-15T11:38:03;17.33;;;8.90;;
26211;SDS011;13951;49.516;6.094;2023-02-15T11:40:48;19.57;;;9.67;;
26211;SDS011;13951;49.516;6.094;2023-02-15T11:43:36;21.57;;;9.53;;
26211;SDS011;13951;49.516;6.094;2023-02-15T11:46:11;20.93;;;9.33;;
26211;SDS011;13951;49.516;6.094;2023-02-15T11:48:45;21.07;;;10.20;;
26211;SDS011;13951;49.516;6.094;2023-02-15T11:51:18;20.63;;;10.27;;
26211;SDS011;13951;49.516;6.094;2023-02-15T11:53:54;19.40;;;9.70;;
26211;SDS011;13951;49.516;6.094;2023-02-15T11:56:30;14.27;;;6.93;;
26211;SDS011;13951;49.516;6.094;2023-02-15T11:59:08;14.63;;;8.40;;
26211;SDS011;13951;49.516;6.094;2023-02-15T12:01:44;26.10;;;9.40;;
26211;SDS011;13951;49.516;6.094;2023-02-15T12:07:03;19.17;;;9.10;;
26211;SDS011;13951;49.516;6.094;2023-02-15T12:09:46;16.27;;;9.57;;
26211;SDS011;13951;49.516;6.094;2023-02-15T12:12:24;19.07;;;9.37;;
26211;SDS011;13951;49.516;6.094;2023-02-15T12:14:59;31.67;;;15.67;;
26211;SDS011;13951;49.516;6.094;2023-02-15T12:17:52;23.43;;;11.03;;
26211;SDS011;13951;49.516;6.094;2023-02-15T12:20:32;16.97;;;8.67;;
26211;SDS011;13951;49.516;6.094;2023-02-15T12:23:11;18.97;;;8.83;;
26211;SDS011;13951;49.516;6.094;2023-02-15T12:25:52;20.97;;;9.87;;
26211;SDS011;13951;49.516;6.094;2023-02-15T12:28:30;19.67;;;9.83;;
26211;SDS011;13951;49.516;6.094;2023-02-15T12:33:53;18.77;;;9.73;;
26211;SDS011;13951;49.516;6.094;2023-02-15T12:36:32;19.07;;;9.67;;
26211;SDS011;13951;49.516;6.094;2023-02-15T12:39:17;13.83;;;8.57;;
26211;SDS011;13951;49.516;6.094;2023-02-15T12:44:33;16.40;;;9.53;;
26211;SDS011;13951;49.516;6.094;2023-02-15T12:49:40;18.20;;;9.00;;
26211;SDS011;13951;49.516;6.094;2023-02-15T12:54:52;16.73;;;9.25;;
26211;SDS011;13951;49.516;6.094;2023-02-15T12:57:34;19.40;;;8.87;;
26211;SDS011;13951;49.516;6.094;2023-02-15T13:02:53;19.95;;;9.90;;
26211;SDS011;13951;49.516;6.094;2023-02-15T13:08:10;18.98;;;9.40;;
26211;SDS011;13951;49.516;6.094;2023-02-15T13:10:54;16.13;;;9.93;;
26211;SDS011;13951;49.516;6.094;2023-02-15T13:13:33;16.35;;;9.38;;
26211;SDS011;13951;49.516;6.094;2023-02-15T13:16:09;14.43;;;9.52;;
26211;SDS011;13951;49.516;6.094;2023-02-15T13:18:45;19.70;;;9.60;;
26211;SDS011;13951;49.516;6.094;2023-02-15T13:21:23;17.65;;;9.68;;
26211;SDS011;13951;49.516;6.094;2023-02-15T13:24:01;17.90;;;9.63;;
26211;SDS011;13951;49.516;6.094;2023-02-15T13:26:38;15.50;;;9.20;;
26211;SDS011;13951;49.516;6.094;2023-02-15T13:31:52;18.47;;;9.17;;
26211;SDS011;13951;49.516;6.094;2023-02-15T13:34:30;20.27;;;9.43;;
26211;SDS011;13951;49.516;6.094;2023-02-15T13:37:18;15.53;;;8.63;;
26211;SDS011;13951;49.516;6.094;2023-02-15T13:40:46;19.70;;;9.23;;
26211;SDS011;13951;49.516;6.094;2023-02-15T13:52:19;21.85;;;11.40;;
26211;SDS011;13951;49.516;6.094;2023-02-15T13:54:55;17.77;;;9.33;;
26211;SDS011;13951;49.516;6.094;2023-02-15T14:00:48;20.87;;;9.20;;
26211;SDS011;13951;49.516;6.094;2023-02-15T14:08:47;19.90;;;8.83;;
26211;SDS011;13951;49.516;6.094;2023-02-15T14:11:46;22.87;;;8.33;;
26211;SDS011;13951;49.516;6.094;2023-02-15T14:20:23;19.23;;;8.40;;
26211;SDS011;13951;49.516;6.094;2023-02-15T14:25:51;17.40;;;8.83;;
26211;SDS011;13951;49.516;6.094;2023-02-15T14:31:08;20.00;;;9.43;;
26211;SDS011;13951;49.516;6.094;2023-02-15T14:33:47;16.73;;;8.27;;
26211;SDS011;13951;49.516;6.094;2023-02-15T14:36:27;20.43;;;8.43;;
26211;SDS011;13951;49.516;6.094;2023-02-15T14:39:16;18.93;;;9.07;;
26211;SDS011;13951;49.516;6.094;2023-02-15T14:42:32;21.97;;;9.27;;
26211;SDS011;13951;49.516;6.094;2023-02-15T14:45:17;16.57;;;9.33;;
26211;SDS011;13951;49.516;6.094;2023-02-15T14:47:56;20.80;;;9.10;;
26211;SDS011;13951;49.516;6.094;2023-02-15T14:50:46;21.03;;;8.60;;
26211;SDS011;13951;49.516;6.094;2023-02-15T14:56:16;21.33;;;9.73;;
26211;SDS011;13951;49.516;6.094;2023-02-15T15:01:29;20.33;;;8.87;;
26211;SDS011;13951;49.516;6.094;2023-02-15T15:04:12;22.63;;;9.87;;
26211;SDS011;13951;49.516;6.094;2023-02-15T15:07:00;21.43;;;10.00;;
26211;SDS011;13951;49.516;6.094;2023-02-15T15:09:40;20.67;;;9.50;;
26211;SDS011;13951;49.516;6.094;2023-02-15T15:14:54;19.13;;;8.40;;
26211;SDS011;13951;49.516;6.094;2023-02-15T15:25:49;18.40;;;8.60;;
26211;SDS011;13951;49.516;6.094;2023-02-15T15:31:08;20.53;;;9.77;;
26211;SDS011;13951;49.516;6.094;2023-02-15T15:34:06;18.87;;;8.97;;
26211;SDS011;13951;49.516;6.094;2023-02-15T15:37:09;20.07;;;8.77;;
26211;SDS011;13951;49.516;6.094;2023-02-15T15:43:10;19.67;;;9.40;;
26211;SDS011;13951;49.516;6.094;2023-02-15T15:48:46;20.10;;;9.13;;
26211;SDS011;13951;49.516;6.094;2023-02-15T15:51:25;19.13;;;9.20;;
26211;SDS011;13951;49.516;6.094;2023-02-15T15:54:02;17.03;;;9.17;;
26211;SDS011;13951;49.516;6.094;2023-02-15T15:56:36;19.60;;;9.70;;
26211;SDS011;13951;49.516;6.094;2023-02-15T15:59:12;21.38;;;11.30;;
26211;SDS011;13951;49.516;6.094;2023-02-15T16:01:50;20.93;;;9.67;;
26211;SDS011;13951;49.516;6.094;2023-02-15T16:09:59;19.80;;;9.57;;
26211;SDS011;13951;49.516;6.094;2023-02-15T16:12:34;16.83;;;8.83;;
26211;SDS011;13951;49.516;6.094;2023-02-15T16:15:17;16.97;;;8.77;;
26211;SDS011;13951;49.516;6.094;2023-02-15T16:17:53;16.90;;;8.83;;
26211;SDS011;13951;49.516;6.094;2023-02-15T16:20:30;19.57;;;9.20;;
26211;SDS011;13951;49.516;6.094;2023-02-15T16:26:15;19.53;;;9.83;;
26211;SDS011;13951;49.516;6.094;2023-02-15T16:29:16;21.33;;;9.60;;
26211;SDS011;13951;49.516;6.094;2023-02-15T16:31:58;19.43;;;10.70;;
26211;SDS011;13951;49.516;6.094;2023-02-15T16:34:32;22.07;;;10.33;;
26211;SDS011;13951;49.516;6.094;2023-02-15T16:37:11;21.77;;;10.77;;
26211;SDS011;13951;49.516;6.094;2023-02-15T16:39:48;21.73;;;10.53;;
26211;SDS011;13951;49.516;6.094;2023-02-15T16:42:22;21.67;;;10.50;;
26211;SDS011;13951;49.516;6.094;2023-02-15T16:44:57;21.10;;;10.70;;
26211;SDS011;13951;49.516;6.094;2023-02-15T16:47:41;22.73;;;10.90;;
26211;SDS011;13951;49.516;6.094;2023-02-15T16:50:19;21.37;;;10.43;;
26211;SDS011;13951;49.516;6.094;2023-02-15T16:52:54;24.47;;;11.80;;
26211;SDS011;13951;49.516;6.094;2023-02-15T16:55:30;21.63;;;11.30;;
26211;SDS011;13951;49.516;6.094;2023-02-15T16:58:11;20.70;;;9.73;;
26211;SDS011;13951;49.516;6.094;2023-02-15T17:00:48;24.73;;;10.43;;
26211;SDS011;13951;49.516;6.094;2023-02-15T17:03:22;19.90;;;11.07;;
26211;SDS011;13951;49.516;6.094;2023-02-15T17:05:59;26.70;;;11.40;;
26211;SDS011;13951;49.516;6.094;2023-02-15T17:08:34;21.00;;;10.17;;
26211;SDS011;13951;49.516;6.094;2023-02-15T17:11:15;20.43;;;10.17;;
26211;SDS011;13951;49.516;6.094;2023-02-15T17:16:45;22.93;;;10.00;;
26211;SDS011;13951;49.516;6.094;2023-02-15T17:19:23;17.90;;;9.90;;
26211;SDS011;13951;49.516;6.094;2023-02-15T17:21:59;23.23;;;9.27;;
26211;SDS011;13951;49.516;6.094;2023-02-15T17:24:39;16.27;;;8.77;;
26211;SDS011;13951;49.516;6.094;2023-02-15T17:27:24;18.60;;;9.47;;
26211;SDS011;13951;49.516;6.094;2023-02-15T17:30:00;19.47;;;8.97;;
26211;SDS011;13951;49.516;6.094;2023-02-15T17:32:34;20.03;;;9.43;;
26211;SDS011;13951;49.516;6.094;2023-02-15T17:38:03;17.83;;;8.83;;
26211;SDS011;13951;49.516;6.094;2023-02-15T17:40:52;18.57;;;8.03;;
26211;SDS011;13951;49.516;6.094;2023-02-15T17:43:25;20.70;;;8.70;;
26211;SDS011;13951;49.516;6.094;2023-02-15T17:45:58;22.23;;;9.35;;
26211;SDS011;13951;49.516;6.094;2023-02-15T17:48:32;20.70;;;9.57;;
26211;SDS011;13951;49.516;6.094;2023-02-15T17:51:10;21.87;;;9.70;;
26211;SDS011;13951;49.516;6.094;2023-02-15T17:53:45;14.13;;;7.90;;
26211;SDS011;13951;49.516;6.094;2023-02-15T17:56:37;19.20;;;8.60;;
26211;SDS011;13951;49.516;6.094;2023-02-15T17:59:10;18.77;;;8.43;;
26211;SDS011;13951;49.516;6.094;2023-02-15T18:01:46;16.60;;;7.77;;
26211;SDS011;13951;49.516;6.094;2023-02-15T18:04:39;20.27;;;9.00;;
26211;SDS011;13951;49.516;6.094;2023-02-15T18:07:31;16.73;;;8.47;;
26211;SDS011;13951;49.516;6.094;2023-02-15T18:10:22;17.33;;;8.43;;
26211;SDS011;13951;49.516;6.094;2023-02-15T18:13:14;22.20;;;8.80;;
26211;SDS011;13951;49.516;6.094;2023-02-15T18:15:47;20.40;;;9.20;;
26211;SDS011;13951;49.516;6.094;2023-02-15T18:18:19;19.10;;;8.90;;
26211;SDS011;13951;49.516;6.094;2023-02-15T18:20:53;17.40;;;8.10;;
26211;SDS011;13951;49.516;6.094;2023-02-15T18:23:26;17.97;;;7.83;;
26211;SDS011;13951;49.516;6.094;2023-02-15T18:25:58;16.53;;;7.33;;